Terminal Aerodrome Forecast
Issued by NWS Louisville, KY

Home | Current Version | Previous Version | Text Only | Print | Product List | Glossary On
Versions: 1 2 3 4 5 6 7 8 9 10 11 12 13 14 15 16 17 18
000
FTUS43 KLMK 231700
TAFBWG
TAF
KBWG 231739Z 2318/2418 15014KT 6SM -SHRA BKN025
     FM231900 15014KT 4SM -SHRA BKN019
     FM240300 19018G25KT P6SM VCSH BKN018
     FM241200 22022G35KT P6SM VCSH BKN025=

USA.gov is the U.S. government's official web portal to all federal, state and local government web resources and services.